sensor_id;sensor_type;location;lat;lon;timestamp;pressure;altitude;pressure_sealevel;temperature;humidity
21760;BME280;11041;50.854;20.580;2023-05-01T00:01:30;99202.84;;;0.97;79.48
21760;BME280;11041;50.854;20.580;2023-05-01T00:03:56;99249.91;;;1.24;79.35
21760;BME280;11041;50.854;20.580;2023-05-01T00:06:23;99247.81;;;1.15;79.45
21760;BME280;11041;50.854;20.580;2023-05-01T00:08:52;99251.97;;;1.05;79.13
21760;BME280;11041;50.854;20.580;2023-05-01T00:11:19;99245.41;;;1.01;79.44
21760;BME280;11041;50.854;20.580;2023-05-01T00:13:45;99227.09;;;0.92;79.66
21760;BME280;11041;50.854;20.580;2023-05-01T00:16:12;99241.31;;;0.99;79.49
21760;BME280;11041;50.854;20.580;2023-05-01T00:18:39;99251.06;;;1.00;79.31
21760;BME280;11041;50.854;20.580;2023-05-01T00:21:05;99235.84;;;0.82;79.54
21760;BME280;11041;50.854;20.580;2023-05-01T00:23:32;99252.16;;;0.87;80.06
21760;BME280;11041;50.854;20.580;2023-05-01T00:25:59;99240.06;;;0.78;80.15
21760;BME280;11041;50.854;20.580;2023-05-01T00:28:25;99241.84;;;0.72;80.24
21760;BME280;11041;50.854;20.580;2023-05-01T00:30:52;99226.47;;;0.61;80.54
21760;BME280;11041;50.854;20.580;2023-05-01T00:33:18;99255.94;;;0.74;81.07
21760;BME280;11041;50.854;20.580;2023-05-01T00:35:45;99255.03;;;0.69;80.88
21760;BME280;11041;50.854;20.580;2023-05-01T00:38:12;99245.97;;;0.63;81.60
21760;BME280;11041;50.854;20.580;2023-05-01T00:40:46;99226.47;;;0.49;81.29
21760;BME280;11041;50.854;20.580;2023-05-01T00:43:12;99229.09;;;0.44;82.02
21760;BME280;11041;50.854;20.580;2023-05-01T00:45:43;99248.22;;;0.54;82.00
21760;BME280;11041;50.854;20.580;2023-05-01T00:48:10;99248.22;;;0.42;82.58
21760;BME280;11041;50.854;20.580;2023-05-01T00:50:38;99231.19;;;0.30;83.21
21760;BME280;11041;50.854;20.580;2023-05-01T00:53:04;99238.97;;;0.27;83.02
21760;BME280;11041;50.854;20.580;2023-05-01T00:55:32;99249.31;;;0.30;82.81
21760;BME280;11041;50.854;20.580;2023-05-01T00:58:00;99245.78;;;0.29;82.76
21760;BME280;11041;50.854;20.580;2023-05-01T01:00:28;99252.50;;;0.27;83.21
21760;BME280;11041;50.854;20.580;2023-05-01T01:02:54;99235.56;;;0.19;82.75
21760;BME280;11041;50.854;20.580;2023-05-01T01:05:27;99236.13;;;0.21;82.68
21760;BME280;11041;50.854;20.580;2023-05-01T01:08:36;99238.03;;;0.21;82.63
21760;BME280;11041;50.854;20.580;2023-05-01T01:11:29;99261.16;;;0.40;82.59
21760;BME280;11041;50.854;20.580;2023-05-01T01:14:14;99262.22;;;0.39;82.52
21760;BME280;11041;50.854;20.580;2023-05-01T01:16:57;99234.97;;;0.17;82.44
21760;BME280;11041;50.854;20.580;2023-05-01T01:33:14;99269.41;;;0.10;83.11
21760;BME280;11041;50.854;20.580;2023-05-01T01:35:28;99238.03;;;-0.14;83.63
21760;BME280;11041;50.854;20.580;2023-05-01T01:38:06;99257.78;;;-0.02;83.33
21760;BME280;11041;50.854;20.580;2023-05-01T01:40:44;99252.69;;;-0.10;83.87
21760;BME280;11041;50.854;20.580;2023-05-01T01:43:19;99269.50;;;0.04;84.14
21760;BME280;11041;50.854;20.580;2023-05-01T01:45:55;99256.59;;;-0.06;83.94
21760;BME280;11041;50.854;20.580;2023-05-01T01:48:42;99268.22;;;0.06;84.15
21760;BME280;11041;50.854;20.580;2023-05-01T01:51:17;99262.91;;;-0.01;84.10
21760;BME280;11041;50.854;20.580;2023-05-01T01:53:53;99272.00;;;0.05;83.63
21760;BME280;11041;50.854;20.580;2023-05-01T01:56:24;99236.84;;;-0.18;83.58
21760;BME280;11041;50.854;20.580;2023-05-01T01:58:53;99248.84;;;-0.14;83.85
21760;BME280;11041;50.854;20.580;2023-05-01T02:01:22;99274.19;;;-0.04;83.60
21760;BME280;11041;50.854;20.580;2023-05-01T02:03:51;99255.50;;;-0.17;83.41
21760;BME280;11041;50.854;20.580;2023-05-01T02:06:21;99285.81;;;-0.03;83.97
21760;BME280;11041;50.854;20.580;2023-05-01T02:08:50;99240.47;;;-0.25;83.97
21760;BME280;11041;50.854;20.580;2023-05-01T02:11:21;99268.56;;;-0.02;84.13
21760;BME280;11041;50.854;20.580;2023-05-01T02:13:49;99242.94;;;-0.23;83.69
21760;BME280;11041;50.854;20.580;2023-05-01T02:16:20;99270.44;;;-0.14;84.32
21760;BME280;11041;50.854;20.580;2023-05-01T02:18:51;99281.97;;;-0.07;83.94
21760;BME280;11041;50.854;20.580;2023-05-01T02:21:20;99259.03;;;-0.16;84.60
21760;BME280;11041;50.854;20.580;2023-05-01T02:23:48;99265.50;;;-0.06;83.88
21760;BME280;11041;50.854;20.580;2023-05-01T02:26:17;99236.13;;;-0.26;84.22
21760;BME280;11041;50.854;20.580;2023-05-01T02:28:44;99267.50;;;-0.01;83.75
21760;BME280;11041;50.854;20.580;2023-05-01T02:31:10;99258.59;;;-0.02;83.92
21760;BME280;11041;50.854;20.580;2023-05-01T02:33:37;99257.66;;;-0.07;83.32
21760;BME280;11041;50.854;20.580;2023-05-01T02:36:04;99245.28;;;-0.15;83.66
21760;BME280;11041;50.854;20.580;2023-05-01T02:38:30;99270.22;;;-0.01;83.13
21760;BME280;11041;50.854;20.580;2023-05-01T02:40:59;99260.47;;;-0.02;83.57
21760;BME280;11041;50.854;20.580;2023-05-01T02:43:30;99239.06;;;-0.15;83.42
21760;BME280;11041;50.854;20.580;2023-05-01T02:46:01;99258.22;;;-0.05;82.75
21760;BME280;11041;50.854;20.580;2023-05-01T02:48:30;99233.66;;;-0.27;83.52
21760;BME280;11041;50.854;20.580;2023-05-01T02:51:00;99243.84;;;-0.29;83.56
21760;BME280;11041;50.854;20.580;2023-05-01T02:53:27;99229.28;;;-0.40;84.05
21760;BME280;11041;50.854;20.580;2023-05-01T02:55:55;99237.16;;;-0.38;83.63
21760;BME280;11041;50.854;20.580;2023-05-01T02:58:21;99249.22;;;-0.41;84.05
21760;BME280;11041;50.854;20.580;2023-05-01T03:00:49;99246.22;;;-0.33;84.78
21760;BME280;11041;50.854;20.580;2023-05-01T03:03:16;99255.25;;;-0.27;84.76
21760;BME280;11041;50.854;20.580;2023-05-01T03:05:43;99232.59;;;-0.38;84.60
21760;BME280;11041;50.854;20.580;2023-05-01T03:08:09;99256.06;;;-0.27;84.26
21760;BME280;11041;50.854;20.580;2023-05-01T03:10:39;99233.53;;;-0.32;84.08
21760;BME280;11041;50.854;20.580;2023-05-01T03:13:08;99242.44;;;-0.32;83.95
21760;BME280;11041;50.854;20.580;2023-05-01T03:15:36;99228.09;;;-0.44;83.28
21760;BME280;11041;50.854;20.580;2023-05-01T03:18:04;99252.31;;;-0.26;83.56
21760;BME280;11041;50.854;20.580;2023-05-01T03:20:31;99232.13;;;-0.35;83.92
21760;BME280;11041;50.854;20.580;2023-05-01T03:22:59;99234.94;;;-0.30;83.48
21760;BME280;11041;50.854;20.580;2023-05-01T03:25:26;99250.94;;;-0.16;83.46
21760;BME280;11041;50.854;20.580;2023-05-01T03:27:52;99238.13;;;-0.21;83.06
21760;BME280;11041;50.854;20.580;2023-05-01T03:30:19;99244.47;;;-0.15;83.13
21760;BME280;11041;50.854;20.580;2023-05-01T03:32:45;99232.69;;;-0.45;82.39
21760;BME280;11041;50.854;20.580;2023-05-01T03:35:12;99265.03;;;-0.56;83.52
21760;BME280;11041;50.854;20.580;2023-05-01T03:37:38;99215.91;;;-0.89;84.09
21760;BME280;11041;50.854;20.580;2023-05-01T03:40:06;99244.38;;;-0.62;84.54
21760;BME280;11041;50.854;20.580;2023-05-01T03:42:32;99250.59;;;-0.62;85.38
21760;BME280;11041;50.854;20.580;2023-05-01T03:44:59;99222.06;;;-0.70;85.75
21760;BME280;11041;50.854;20.580;2023-05-01T03:47:25;99256.03;;;-0.50;85.71
21760;BME280;11041;50.854;20.580;2023-05-01T03:49:52;99255.56;;;-0.47;85.85
21760;BME280;11041;50.854;20.580;2023-05-01T03:52:19;99226.31;;;-0.62;86.55
21760;BME280;11041;50.854;20.580;2023-05-01T03:54:45;99252.97;;;-0.54;86.79
21760;BME280;11041;50.854;20.580;2023-05-01T03:57:11;99268.09;;;-0.65;86.80
21760;BME280;11041;50.854;20.580;2023-05-01T03:59:40;99258.53;;;-0.79;87.51
21760;BME280;11041;50.854;20.580;2023-05-01T04:02:09;99252.06;;;-0.78;87.65
21760;BME280;11041;50.854;20.580;2023-05-01T04:04:35;99259.28;;;-0.60;88.03
21760;BME280;11041;50.854;20.580;2023-05-01T04:07:02;99232.16;;;-0.65;87.82
21760;BME280;11041;50.854;20.580;2023-05-01T04:09:29;99265.13;;;-0.33;87.66
21760;BME280;11041;50.854;20.580;2023-05-01T04:11:55;99249.16;;;-0.23;87.78
21760;BME280;11041;50.854;20.580;2023-05-01T04:14:22;99226.50;;;-0.22;87.08
21760;BME280;11041;50.854;20.580;2023-05-01T04:16:49;99223.94;;;-0.16;87.26
21760;BME280;11041;50.854;20.580;2023-05-01T04:19:16;99251.53;;;0.09;87.63
21760;BME280;11041;50.854;20.580;2023-05-01T04:21:42;99252.34;;;0.21;86.94
21760;BME280;11041;50.854;20.580;2023-05-01T04:24:09;99257.53;;;0.35;86.28
21760;BME280;11041;50.854;20.580;2023-05-01T04:26:35;99235.53;;;0.31;86.46
21760;BME280;11041;50.854;20.580;2023-05-01T04:29:02;99242.34;;;0.46;86.65
21760;BME280;11041;50.854;20.580;2023-05-01T04:31:29;99226.00;;;0.52;86.16
21760;BME280;11041;50.854;20.580;2023-05-01T04:33:56;99234.56;;;0.73;85.88
21760;BME280;11041;50.854;20.580;2023-05-01T04:36:23;99250.59;;;0.91;85.66
21760;BME280;11041;50.854;20.580;2023-05-01T04:38:50;99244.25;;;0.97;85.94
21760;BME280;11041;50.854;20.580;2023-05-01T04:41:16;99228.00;;;0.97;86.01
21760;BME280;11041;50.854;20.580;2023-05-01T04:43:43;99224.44;;;1.09;85.94
21760;BME280;11041;50.854;20.580;2023-05-01T04:46:09;99215.59;;;1.13;85.38
21760;BME280;11041;50.854;20.580;2023-05-01T04:48:36;99232.69;;;1.31;85.61
21760;BME280;11041;50.854;20.580;2023-05-01T04:51:03;99213.91;;;1.41;85.15
21760;BME280;11041;50.854;20.580;2023-05-01T04:53:29;99246.88;;;1.66;85.00
21760;BME280;11041;50.854;20.580;2023-05-01T04:55:57;99212.53;;;1.55;84.77
21760;BME280;11041;50.854;20.580;2023-05-01T04:58:24;99206.41;;;1.60;84.56
21760;BME280;11041;50.854;20.580;2023-05-01T05:00:50;99226.25;;;1.82;84.36
21760;BME280;11041;50.854;20.580;2023-05-01T05:03:17;99219.88;;;1.88;84.54
21760;BME280;11041;50.854;20.580;2023-05-01T05:05:45;99232.59;;;2.05;84.47
21760;BME280;11041;50.854;20.580;2023-05-01T05:08:12;99244.53;;;2.26;84.45
21760;BME280;11041;50.854;20.580;2023-05-01T05:10:38;99247.66;;;2.34;84.18
21760;BME280;11041;50.854;20.580;2023-05-01T05:13:05;99234.75;;;2.42;84.48
21760;BME280;11041;50.854;20.580;2023-05-01T05:15:31;99224.47;;;2.44;84.51
21760;BME280;11041;50.854;20.580;2023-05-01T05:17:58;99246.59;;;2.74;84.97
21760;BME280;11041;50.854;20.580;2023-05-01T05:20:24;99227.28;;;2.71;84.74
21760;BME280;11041;50.854;20.580;2023-05-01T05:22:52;99245.78;;;2.96;84.28
21760;BME280;11041;50.854;20.580;2023-05-01T05:25:19;99236.31;;;2.98;83.64
21760;BME280;11041;50.854;20.580;2023-05-01T05:27:46;99252.63;;;3.26;84.04
21760;BME280;11041;50.854;20.580;2023-05-01T05:30:13;99207.41;;;3.14;83.46
21760;BME280;11041;50.854;20.580;2023-05-01T05:32:42;99252.34;;;3.49;83.14
21760;BME280;11041;50.854;20.580;2023-05-01T05:35:10;99243.13;;;3.55;83.33
21760;BME280;11041;50.854;20.580;2023-05-01T05:37:37;99227.59;;;3.51;83.09
21760;BME280;11041;50.854;20.580;2023-05-01T05:40:05;99236.72;;;3.67;82.95
21760;BME280;11041;50.854;20.580;2023-05-01T05:42:32;99229.75;;;3.76;82.67
21760;BME280;11041;50.854;20.580;2023-05-01T05:44:59;99232.06;;;3.94;83.23
21760;BME280;11041;50.854;20.580;2023-05-01T05:47:28;99230.53;;;4.09;82.16
21760;BME280;11041;50.854;20.580;2023-05-01T05:49:58;99246.47;;;4.32;82.79
21760;BME280;11041;50.854;20.580;2023-05-01T05:52:29;99218.50;;;4.37;80.47
21760;BME280;11041;50.854;20.580;2023-05-01T05:55:01;99242.13;;;4.79;79.40
21760;BME280;11041;50.854;20.580;2023-05-01T05:57:32;99250.16;;;5.11;77.81
21760;BME280;11041;50.854;20.580;2023-05-01T06:00:04;99246.09;;;5.24;75.02
21760;BME280;11041;50.854;20.580;2023-05-01T06:02:32;99257.66;;;5.67;71.76
21760;BME280;11041;50.854;20.580;2023-05-01T06:05:00;99236.13;;;5.86;69.91
21760;BME280;11041;50.854;20.580;2023-05-01T06:07:27;99251.41;;;6.23;69.20
21760;BME280;11041;50.854;20.580;2023-05-01T06:09:55;99256.59;;;6.45;67.58
21760;BME280;11041;50.854;20.580;2023-05-01T06:12:29;99259.81;;;6.67;65.33
21760;BME280;11041;50.854;20.580;2023-05-01T06:14:58;99255.66;;;6.85;65.56
21760;BME280;11041;50.854;20.580;2023-05-01T06:17:25;99226.44;;;6.80;63.74
21760;BME280;11041;50.854;20.580;2023-05-01T06:19:53;99241.97;;;7.00;61.19
21760;BME280;11041;50.854;20.580;2023-05-01T06:22:20;99249.50;;;7.24;60.70
21760;BME280;11041;50.854;20.580;2023-05-01T06:24:48;99235.28;;;7.27;60.60
21760;BME280;11041;50.854;20.580;2023-05-01T06:27:17;99261.38;;;7.54;60.76
21760;BME280;11041;50.854;20.580;2023-05-01T06:29:48;99249.88;;;7.57;60.67
21760;BME280;11041;50.854;20.580;2023-05-01T06:32:21;99249.75;;;7.77;60.13
21760;BME280;11041;50.854;20.580;2023-05-01T06:34:48;99238.81;;;7.77;59.91
21760;BME280;11041;50.854;20.580;2023-05-01T06:37:16;99259.94;;;8.01;60.23
21760;BME280;11041;50.854;20.580;2023-05-01T06:39:43;99242.16;;;8.03;59.96
21760;BME280;11041;50.854;20.580;2023-05-01T06:42:11;99250.50;;;8.17;59.50
21760;BME280;11041;50.854;20.580;2023-05-01T06:44:42;99246.63;;;8.23;59.93
21760;BME280;11041;50.854;20.580;2023-05-01T06:47:09;99245.44;;;8.35;59.12
21760;BME280;11041;50.854;20.580;2023-05-01T06:49:36;99232.84;;;8.33;58.74
21760;BME280;11041;50.854;20.580;2023-05-01T06:52:04;99237.63;;;8.52;57.73
21760;BME280;11041;50.854;20.580;2023-05-01T06:54:31;99247.25;;;8.73;55.25
21760;BME280;11041;50.854;20.580;2023-05-01T06:56:58;99244.94;;;8.86;55.15
21760;BME280;11041;50.854;20.580;2023-05-01T06:59:26;99233.97;;;8.86;54.70
21760;BME280;11041;50.854;20.580;2023-05-01T07:01:53;99230.91;;;8.87;56.38
21760;BME280;11041;50.854;20.580;2023-05-01T07:04:20;99234.03;;;9.05;55.65
21760;BME280;11041;50.854;20.580;2023-05-01T07:06:47;99207.56;;;8.95;54.95
21760;BME280;11041;50.854;20.580;2023-05-01T07:09:14;99211.25;;;9.04;55.49
21760;BME280;11041;50.854;20.580;2023-05-01T07:11:41;99239.53;;;9.24;54.26
21760;BME280;11041;50.854;20.580;2023-05-01T07:14:08;99233.38;;;9.32;54.01
21760;BME280;11041;50.854;20.580;2023-05-01T07:16:34;99227.66;;;9.28;55.48
21760;BME280;11041;50.854;20.580;2023-05-01T07:19:01;99236.22;;;9.46;55.58
21760;BME280;11041;50.854;20.580;2023-05-01T07:21:27;99216.19;;;9.45;55.18
21760;BME280;11041;50.854;20.580;2023-05-01T07:23:54;99206.09;;;9.59;50.53
21760;BME280;11041;50.854;20.580;2023-05-01T07:26:21;99217.94;;;9.74;52.15
21760;BME280;11041;50.854;20.580;2023-05-01T07:28:47;99232.06;;;9.86;51.72
21760;BME280;11041;50.854;20.580;2023-05-01T07:31:14;99214.63;;;9.77;52.82
21760;BME280;11041;50.854;20.580;2023-05-01T07:33:41;99238.72;;;9.99;52.92
21760;BME280;11041;50.854;20.580;2023-05-01T07:36:08;99231.88;;;9.96;52.92
21760;BME280;11041;50.854;20.580;2023-05-01T07:38:34;99216.22;;;9.97;50.76
21760;BME280;11041;50.854;20.580;2023-05-01T07:41:01;99239.91;;;10.26;47.79
21760;BME280;11041;50.854;20.580;2023-05-01T07:43:27;99214.97;;;10.22;48.63
21760;BME280;11041;50.854;20.580;2023-05-01T07:45:59;99234.59;;;10.34;49.42
21760;BME280;11041;50.854;20.580;2023-05-01T07:48:27;99231.84;;;10.34;49.19
21760;BME280;11041;50.854;20.580;2023-05-01T07:50:55;99238.56;;;10.42;49.59
21760;BME280;11041;50.854;20.580;2023-05-01T07:53:22;99224.31;;;10.40;50.24
21760;BME280;11041;50.854;20.580;2023-05-01T07:55:49;99234.91;;;10.47;47.21
21760;BME280;11041;50.854;20.580;2023-05-01T07:58:16;99233.16;;;10.51;48.37
21760;BME280;11041;50.854;20.580;2023-05-01T08:00:43;99209.66;;;10.44;50.28
21760;BME280;11041;50.854;20.580;2023-05-01T08:03:12;99236.25;;;10.77;43.75
21760;BME280;11041;50.854;20.580;2023-05-01T08:05:40;99236.56;;;10.75;46.01
21760;BME280;11041;50.854;20.580;2023-05-01T08:08:08;99236.16;;;10.68;47.19
21760;BME280;11041;50.854;20.580;2023-05-01T08:10:35;99217.22;;;10.66;48.03
21760;BME280;11041;50.854;20.580;2023-05-01T08:13:01;99226.69;;;10.74;47.34
21760;BME280;11041;50.854;20.580;2023-05-01T08:15:28;99240.97;;;10.90;45.23
21760;BME280;11041;50.854;20.580;2023-05-01T08:17:55;99232.59;;;10.95;43.24
21760;BME280;11041;50.854;20.580;2023-05-01T08:20:21;99227.81;;;11.01;44.27
21760;BME280;11041;50.854;20.580;2023-05-01T08:22:48;99206.72;;;10.96;42.57
21760;BME280;11041;50.854;20.580;2023-05-01T08:25:15;99238.09;;;11.09;45.18
21760;BME280;11041;50.854;20.580;2023-05-01T08:27:41;99213.25;;;11.00;45.94
21760;BME280;11041;50.854;20.580;2023-05-01T08:30:08;99209.69;;;11.00;48.02
21760;BME280;11041;50.854;20.580;2023-05-01T08:32:35;99207.22;;;11.12;46.43
21760;BME280;11041;50.854;20.580;2023-05-01T08:35:02;99218.34;;;11.21;44.36
21760;BME280;11041;50.854;20.580;2023-05-01T08:37:29;99232.44;;;11.42;43.14
21760;BME280;11041;50.854;20.580;2023-05-01T08:39:56;99214.09;;;11.37;42.53
21760;BME280;11041;50.854;20.580;2023-05-01T08:42:22;99233.59;;;11.63;41.54
21760;BME280;11041;50.854;20.580;2023-05-01T08:44:52;99209.81;;;11.45;42.80
21760;BME280;11041;50.854;20.580;2023-05-01T08:47:21;99196.16;;;11.40;42.28
21760;BME280;11041;50.854;20.580;2023-05-01T08:49:51;99236.47;;;11.58;42.12
21760;BME280;11041;50.854;20.580;2023-05-01T08:52:21;99237.50;;;11.62;42.76
21760;BME280;11041;50.854;20.580;2023-05-01T08:54:51;99235.56;;;11.63;43.47
21760;BME280;11041;50.854;20.580;2023-05-01T08:57:20;99232.69;;;11.68;41.21
21760;BME280;11041;50.854;20.580;2023-05-01T08:59:49;99229.94;;;11.68;41.08
21760;BME280;11041;50.854;20.580;2023-05-01T09:02:17;99231.88;;;11.67;44.77
21760;BME280;11041;50.854;20.580;2023-05-01T09:04:45;99216.06;;;11.59;44.39
21760;BME280;11041;50.854;20.580;2023-05-01T09:07:13;99208.53;;;11.65;44.03
21760;BME280;11041;50.854;20.580;2023-05-01T09:09:39;99183.44;;;11.66;43.25
21760;BME280;11041;50.854;20.580;2023-05-01T09:12:25;99225.81;;;11.93;44.08
21760;BME280;11041;50.854;20.580;2023-05-01T09:14:55;99228.44;;;11.84;41.86
21760;BME280;11041;50.854;20.580;2023-05-01T09:17:23;99221.81;;;11.85;43.93
21760;BME280;11041;50.854;20.580;2023-05-01T09:19:50;99190.53;;;11.81;41.81
21760;BME280;11041;50.854;20.580;2023-05-01T09:22:18;99190.69;;;11.85;42.26
21760;BME280;11041;50.854;20.580;2023-05-01T09:24:45;99210.63;;;12.04;43.61
21760;BME280;11041;50.854;20.580;2023-05-01T09:27:13;99201.38;;;12.00;42.81
21760;BME280;11041;50.854;20.580;2023-05-01T09:29:45;99183.34;;;11.94;42.91
21760;BME280;11041;50.854;20.580;2023-05-01T09:32:22;99200.75;;;12.03;42.96
21760;BME280;11041;50.854;20.580;2023-05-01T09:34:51;99192.28;;;12.00;44.21
21760;BME280;11041;50.854;20.580;2023-05-01T09:37:32;99191.22;;;12.09;45.58
21760;BME280;11041;50.854;20.580;2023-05-01T09:40:12;99207.75;;;12.32;44.67
21760;BME280;11041;50.854;20.580;2023-05-01T09:42:51;99198.53;;;12.36;42.21
21760;BME280;11041;50.854;20.580;2023-05-01T09:45:18;99180.44;;;12.22;41.49
21760;BME280;11041;50.854;20.580;2023-05-01T09:47:46;99182.56;;;12.25;42.80
21760;BME280;11041;50.854;20.580;2023-05-01T09:50:33;99180.69;;;12.34;44.68
21760;BME280;11041;50.854;20.580;2023-05-01T09:53:01;99197.81;;;12.53;44.55
21760;BME280;11041;50.854;20.580;2023-05-01T09:55:30;99177.38;;;12.54;44.37
21760;BME280;11041;50.854;20.580;2023-05-01T09:57:57;99178.66;;;12.57;43.53
21760;BME280;11041;50.854;20.580;2023-05-01T10:00:27;99191.06;;;12.68;42.55
21760;BME280;11041;50.854;20.580;2023-05-01T10:02:55;99195.28;;;12.74;41.66
21760;BME280;11041;50.854;20.580;2023-05-01T10:05:22;99157.63;;;12.70;39.85
21760;BME280;11041;50.854;20.580;2023-05-01T10:08:01;99168.88;;;12.82;40.61
21760;BME280;11041;50.854;20.580;2023-05-01T10:10:31;99182.56;;;13.05;39.21
21760;BME280;11041;50.854;20.580;2023-05-01T10:13:16;99188.28;;;13.26;41.47
21760;BME280;11041;50.854;20.580;2023-05-01T10:15:45;99163.44;;;13.17;41.84
21760;BME280;11041;50.854;20.580;2023-05-01T10:18:13;99179.22;;;13.34;37.49
21760;BME280;11041;50.854;20.580;2023-05-01T10:20:40;99145.91;;;13.21;38.95
21760;BME280;11041;50.854;20.580;2023-05-01T10:23:07;99161.50;;;13.26;41.52
21760;BME280;11041;50.854;20.580;2023-05-01T10:25:35;99169.34;;;13.33;41.64
21760;BME280;11041;50.854;20.580;2023-05-01T10:28:05;99151.44;;;13.21;39.81
21760;BME280;11041;50.854;20.580;2023-05-01T10:30:34;99170.63;;;13.35;41.03
21760;BME280;11041;50.854;20.580;2023-05-01T10:33:04;99161.88;;;13.51;39.69
21760;BME280;11041;50.854;20.580;2023-05-01T10:35:38;99170.66;;;13.61;39.39
21760;BME280;11041;50.854;20.580;2023-05-01T10:38:16;99134.56;;;13.49;38.11
21760;BME280;11041;50.854;20.580;2023-05-01T10:40:47;99156.16;;;13.73;37.06
21760;BME280;11041;50.854;20.580;2023-05-01T10:43:29;99134.72;;;13.70;36.75
21760;BME280;11041;50.854;20.580;2023-05-01T10:51:20;99138.13;;;13.93;37.53
21760;BME280;11041;50.854;20.580;2023-05-01T10:59:03;99122.19;;;13.99;40.69
21760;BME280;11041;50.854;20.580;2023-05-01T11:01:35;99150.59;;;14.17;38.72
21760;BME280;11041;50.854;20.580;2023-05-01T11:09:54;99132.50;;;14.28;40.19
21760;BME280;11041;50.854;20.580;2023-05-01T11:15:24;99110.94;;;14.51;38.82
21760;BME280;11041;50.854;20.580;2023-05-01T11:17:51;99120.03;;;14.52;37.29
21760;BME280;11041;50.854;20.580;2023-05-01T11:22:56;99102.97;;;14.58;38.53
21760;BME280;11041;50.854;20.580;2023-05-01T11:25:25;99099.13;;;14.72;39.00
21760;BME280;11041;50.854;20.580;2023-05-01T11:27:56;99095.66;;;14.83;37.94
21760;BME280;11041;50.854;20.580;2023-05-01T11:30:24;99102.50;;;15.07;37.45
21760;BME280;11041;50.854;20.580;2023-05-01T11:32:51;99098.53;;;15.38;34.27
21760;BME280;11041;50.854;20.580;2023-05-01T11:35:24;99099.53;;;15.33;33.59
21760;BME280;11041;50.854;20.580;2023-05-01T11:37:52;99097.38;;;15.18;35.98
21760;BME280;11041;50.854;20.580;2023-05-01T11:40:26;99085.38;;;15.13;33.93
21760;BME280;11041;50.854;20.580;2023-05-01T11:43:03;99095.88;;;15.41;36.62
21760;BME280;11041;50.854;20.580;2023-05-01T11:45:31;99078.38;;;15.49;37.15
21760;BME280;11041;50.854;20.580;2023-05-01T11:47:58;99086.81;;;15.74;35.61
21760;BME280;11041;50.854;20.580;2023-05-01T11:50:51;99092.59;;;15.81;37.08
21760;BME280;11041;50.854;20.580;2023-05-01T11:53:17;99089.91;;;16.06;32.90
21760;BME280;11041;50.854;20.580;2023-05-01T11:55:44;99081.38;;;16.23;34.24
21760;BME280;11041;50.854;20.580;2023-05-01T11:58:12;99055.28;;;16.36;36.28
21760;BME280;11041;50.854;20.580;2023-05-01T12:00:42;99077.69;;;16.44;34.05
21760;BME280;11041;50.854;20.580;2023-05-01T12:03:12;99059.56;;;16.46;36.06
21760;BME280;11041;50.854;20.580;2023-05-01T12:05:42;99060.25;;;16.55;34.25
21760;BME280;11041;50.854;20.580;2023-05-01T12:10:39;99057.78;;;16.91;33.07
21760;BME280;11041;50.854;20.580;2023-05-01T12:13:10;99045.41;;;17.00;32.90
21760;BME280;11041;50.854;20.580;2023-05-01T12:15:44;99065.44;;;17.34;32.47
21760;BME280;11041;50.854;20.580;2023-05-01T12:18:13;99041.09;;;17.43;31.52
21760;BME280;11041;50.854;20.580;2023-05-01T12:20:43;99064.94;;;17.73;31.27
21760;BME280;11041;50.854;20.580;2023-05-01T12:23:12;99041.97;;;17.76;28.90
21760;BME280;11041;50.854;20.580;2023-05-01T12:25:43;99031.59;;;17.73;30.82
21760;BME280;11041;50.854;20.580;2023-05-01T12:28:19;99051.72;;;17.98;28.44
21760;BME280;11041;50.854;20.580;2023-05-01T12:30:48;99053.69;;;17.97;30.71
21760;BME280;11041;50.854;20.580;2023-05-01T12:33:19;99034.41;;;17.88;30.31
21760;BME280;11041;50.854;20.580;2023-05-01T12:35:48;99021.75;;;17.91;28.42
21760;BME280;11041;50.854;20.580;2023-05-01T12:38:18;99029.03;;;18.12;28.82
21760;BME280;11041;50.854;20.580;2023-05-01T12:40:57;99030.53;;;18.25;29.13
21760;BME280;11041;50.854;20.580;2023-05-01T12:43:33;99003.75;;;18.17;27.15
21760;BME280;11041;50.854;20.580;2023-05-01T12:46:03;99018.72;;;18.28;28.27
21760;BME280;11041;50.854;20.580;2023-05-01T12:48:31;99004.19;;;18.19;29.61
21760;BME280;11041;50.854;20.580;2023-05-01T12:51:00;98991.19;;;18.07;30.12
21760;BME280;11041;50.854;20.580;2023-05-01T12:53:28;99008.13;;;18.18;30.65
21760;BME280;11041;50.854;20.580;2023-05-01T12:55:57;98986.44;;;18.23;30.54
21760;BME280;11041;50.854;20.580;2023-05-01T12:58:37;98990.50;;;18.45;29.16
21760;BME280;11041;50.854;20.580;2023-05-01T13:01:04;98988.06;;;18.60;28.33
21760;BME280;11041;50.854;20.580;2023-05-01T13:03:33;98995.44;;;18.87;29.59
21760;BME280;11041;50.854;20.580;2023-05-01T13:06:02;99006.25;;;19.08;29.33
21760;BME280;11041;50.854;20.580;2023-05-01T13:08:33;98997.00;;;19.24;29.47
21760;BME280;11041;50.854;20.580;2023-05-01T13:11:16;98982.34;;;19.27;29.41
21760;BME280;11041;50.854;20.580;2023-05-01T13:13:48;99007.84;;;19.68;29.66
21760;BME280;11041;50.854;20.580;2023-05-01T13:16:16;98990.19;;;19.83;26.97
21760;BME280;11041;50.854;20.580;2023-05-01T13:18:51;98995.34;;;20.04;26.09
21760;BME280;11041;50.854;20.580;2023-05-01T13:21:23;98996.81;;;20.21;26.59
21760;BME280;11041;50.854;20.580;2023-05-01T13:23:59;98972.19;;;20.27;27.07
21760;BME280;11041;50.854;20.580;2023-05-01T13:26:32;98969.16;;;20.39;26.84
21760;BME280;11041;50.854;20.580;2023-05-01T13:29:02;98967.25;;;20.43;23.40
21760;BME280;11041;50.854;20.580;2023-05-01T13:31:30;98960.69;;;20.32;25.62
21760;BME280;11041;50.854;20.580;2023-05-01T13:33:58;98976.53;;;20.51;24.71
21760;BME280;11041;50.854;20.580;2023-05-01T13:36:30;98971.50;;;20.60;24.84
21760;BME280;11041;50.854;20.580;2023-05-01T13:39:00;98954.09;;;20.70;23.79
21760;BME280;11041;50.854;20.580;2023-05-01T13:41:27;98975.84;;;20.88;23.73